createdAt,value
2018-09-15T00:01:12.762Z,99.90
2018-09-15T00:03:42.139Z,99.90
2018-09-15T00:06:11.439Z,99.90
2018-09-15T00:08:40.736Z,99.90
2018-09-15T00:11:10.057Z,99.90
2018-09-15T00:13:39.364Z,99.90
2018-09-15T00:16:08.727Z,99.90
2018-09-15T00:18:38.088Z,99.90
2018-09-15T00:21:07.056Z,99.90
2018-09-15T00:23:36.496Z,99.90
2018-09-15T00:26:05.811Z,99.90
2018-09-15T00:28:35.199Z,99.90
2018-09-15T00:31:04.575Z,99.90
2018-09-15T00:33:33.885Z,99.90
2018-09-15T00:36:03.119Z,99.90
2018-09-15T00:38:33.508Z,99.90
2018-09-15T00:41:02.813Z,99.90
2018-09-15T00:43:32.127Z,99.90
2018-09-15T00:46:01.419Z,99.90
2018-09-15T00:48:30.714Z,99.90
2018-09-15T00:50:59.993Z,99.90
2018-09-15T00:53:29.358Z,99.90
2018-09-15T00:55:58.630Z,99.90
2018-09-15T00:58:27.925Z,99.90
2018-09-15T01:00:57.191Z,99.90
2018-09-15T01:03:26.494Z,99.90
2018-09-15T01:05:55.773Z,99.90
2018-09-15T01:08:25.033Z,99.90
2018-09-15T01:10:54.304Z,99.90
2018-09-15T01:13:23.554Z,99.90
2018-09-15T01:15:52.843Z,99.90
2018-09-15T01:18:22.134Z,99.90
2018-09-15T01:20:51.495Z,99.90
2018-09-15T01:25:49.552Z,99.90
2018-09-15T01:28:18.786Z,99.90
2018-09-15T01:30:48.218Z,99.90
2018-09-15T01:33:17.483Z,99.90
2018-09-15T01:35:46.851Z,99.90
2018-09-15T01:38:16.146Z,99.90
2018-09-15T01:40:45.447Z,99.90
2018-09-15T01:43:14.758Z,99.90
2018-09-15T01:45:44.118Z,99.90
2018-09-15T01:48:13.406Z,99.90
2018-09-15T01:50:42.682Z,99.90
2018-09-15T01:53:11.924Z,99.90
2018-09-15T01:55:41.259Z,99.90
2018-09-15T01:58:10.518Z,99.90
2018-09-15T02:00:39.882Z,99.90
2018-09-15T02:03:09.122Z,99.90
2018-09-15T02:05:38.397Z,99.90
2018-09-15T02:08:07.660Z,99.90
2018-09-15T02:10:36.995Z,99.90
2018-09-15T02:13:06.294Z,99.90
2018-09-15T02:15:35.636Z,99.90
2018-09-15T02:18:04.905Z,99.90
2018-09-15T02:20:34.207Z,99.90
2018-09-15T02:23:03.521Z,99.90
2018-09-15T02:25:32.830Z,99.90
2018-09-15T02:28:02.155Z,99.90
2018-09-15T02:30:31.495Z,99.90
2018-09-15T02:33:00.788Z,99.90
2018-09-15T02:35:30.161Z,99.90
2018-09-15T02:37:59.491Z,99.90
2018-09-15T02:40:28.811Z,99.90
2018-09-15T02:42:58.036Z,99.90
2018-09-15T02:45:27.319Z,99.90
2018-09-15T02:47:56.577Z,99.90
2018-09-15T02:50:25.848Z,99.90
2018-09-15T02:52:55.166Z,99.90
2018-09-15T02:55:24.434Z,99.90
2018-09-15T02:57:53.783Z,99.90
2018-09-15T03:00:23.073Z,99.90
2018-09-15T03:02:52.276Z,99.90
2018-09-15T03:05:21.586Z,99.90
2018-09-15T03:07:50.850Z,99.90
2018-09-15T03:10:20.083Z,99.90
2018-09-15T03:12:49.547Z,99.90
2018-09-15T03:15:18.831Z,99.90
2018-09-15T03:17:48.174Z,99.90
2018-09-15T03:20:17.471Z,99.90
2018-09-15T03:22:46.867Z,99.90
2018-09-15T03:25:16.199Z,99.90
2018-09-15T03:27:45.499Z,99.90
2018-09-15T03:30:14.814Z,99.90
2018-09-15T03:32:44.133Z,99.90
2018-09-15T03:35:13.473Z,99.90
2018-09-15T03:37:42.771Z,99.90
2018-09-15T03:40:12.078Z,99.90
2018-09-15T03:42:41.704Z,99.90
2018-09-15T03:45:10.944Z,99.90
2018-09-15T03:47:40.575Z,99.90
2018-09-15T03:50:09.855Z,99.90
2018-09-15T03:52:39.174Z,99.90
2018-09-15T03:55:08.430Z,99.90
2018-09-15T03:57:37.694Z,99.90
2018-09-15T04:00:07.084Z,99.90
2018-09-15T04:02:36.314Z,99.90
2018-09-15T04:05:05.611Z,99.90
2018-09-15T04:07:34.913Z,99.90
2018-09-15T04:10:04.334Z,99.90
2018-09-15T04:12:33.682Z,99.90
2018-09-15T04:15:03.003Z,99.90
2018-09-15T04:17:32.362Z,99.90
2018-09-15T04:20:01.727Z,99.90
2018-09-15T04:22:31.040Z,99.90
2018-09-15T04:25:00.339Z,99.90
2018-09-15T04:27:29.632Z,99.90
2018-09-15T04:29:58.878Z,99.90
2018-09-15T04:32:28.176Z,99.90
2018-09-15T04:34:57.535Z,99.90
2018-09-15T04:37:26.859Z,99.90
2018-09-15T04:39:56.158Z,99.90
2018-09-15T04:42:25.476Z,99.90
2018-09-15T04:44:54.824Z,99.90
2018-09-15T04:47:24.140Z,99.90
2018-09-15T04:49:53.378Z,99.90
2018-09-15T04:52:22.914Z,99.90
2018-09-15T04:54:52.380Z,99.90
2018-09-15T04:57:21.698Z,99.90
2018-09-15T04:59:51.003Z,99.90
2018-09-15T05:02:20.315Z,99.90
2018-09-15T05:04:49.632Z,99.90
2018-09-15T05:07:18.904Z,99.90
2018-09-15T05:09:48.194Z,99.90
2018-09-15T05:12:17.456Z,99.90
2018-09-15T05:14:46.719Z,99.90
2018-09-15T05:17:16.040Z,99.90
2018-09-15T05:19:45.315Z,99.90
2018-09-15T05:22:14.548Z,99.90
2018-09-15T05:24:43.917Z,99.90
2018-09-15T05:27:13.167Z,99.90
2018-09-15T05:29:42.463Z,99.90
2018-09-15T05:32:11.741Z,99.90
2018-09-15T05:34:41.093Z,99.90
2018-09-15T05:37:10.378Z,99.90
2018-09-15T05:39:39.664Z,99.90
2018-09-15T05:42:08.980Z,99.90
2018-09-15T05:44:38.435Z,99.90
2018-09-15T05:47:07.887Z,99.90
2018-09-15T05:49:37.228Z,99.90
2018-09-15T05:52:06.608Z,99.90
2018-09-15T05:54:35.915Z,99.90
2018-09-15T05:57:05.199Z,99.90
2018-09-15T05:59:34.524Z,99.90
2018-09-15T06:02:03.782Z,99.90
2018-09-15T06:04:33.071Z,99.90
2018-09-15T06:07:02.359Z,99.90
2018-09-15T06:09:31.652Z,99.90
2018-09-15T06:12:00.930Z,99.90
2018-09-15T06:14:30.357Z,99.90
2018-09-15T06:16:59.629Z,99.90
2018-09-15T06:19:28.943Z,99.90
2018-09-15T06:21:58.305Z,99.90
2018-09-15T06:24:27.683Z,99.90
2018-09-15T06:26:57.112Z,99.90
2018-09-15T06:29:26.446Z,99.90
2018-09-15T06:31:55.811Z,99.90
2018-09-15T06:34:26.094Z,99.90
2018-09-15T06:36:55.362Z,99.90
2018-09-15T06:39:24.728Z,99.90
2018-09-15T06:41:54.143Z,99.90
2018-09-15T06:44:23.431Z,99.90
2018-09-15T06:46:52.809Z,99.90
2018-09-15T06:49:22.198Z,99.90
2018-09-15T06:51:51.605Z,99.90
2018-09-15T06:54:20.940Z,99.90
2018-09-15T06:56:50.247Z,99.90
2018-09-15T06:59:19.536Z,99.90
2018-09-15T07:01:48.847Z,99.90
2018-09-15T07:04:18.094Z,99.90
2018-09-15T07:06:47.402Z,99.90
2018-09-15T07:09:16.698Z,99.90
2018-09-15T07:11:46.010Z,99.90
2018-09-15T07:14:15.264Z,99.90
2018-09-15T07:16:44.718Z,99.90
2018-09-15T07:19:14.042Z,99.90
2018-09-15T07:21:43.358Z,99.90
2018-09-15T07:24:12.639Z,99.90
2018-09-15T07:26:41.958Z,99.90
2018-09-15T07:29:11.312Z,99.90
2018-09-15T07:31:40.795Z,99.90
2018-09-15T07:34:10.134Z,99.90
2018-09-15T07:36:39.434Z,99.90
2018-09-15T07:39:10.585Z,99.90
2018-09-15T07:41:40.090Z,99.90
2018-09-15T07:44:09.413Z,99.90
2018-09-15T07:46:38.742Z,99.90
2018-09-15T07:49:08.078Z,99.90
2018-09-15T07:51:37.425Z,99.90
2018-09-15T07:54:06.833Z,99.90
2018-09-15T07:56:36.207Z,99.90
2018-09-15T07:59:05.514Z,99.90
2018-09-15T08:01:34.824Z,99.90
2018-09-15T08:04:11.704Z,99.90
2018-09-15T08:06:40.998Z,99.90
2018-09-15T08:09:10.267Z,99.90
2018-09-15T08:11:40.022Z,99.90
2018-09-15T08:14:09.341Z,99.90
2018-09-15T08:16:38.678Z,99.90
2018-09-15T08:19:08.018Z,99.90
2018-09-15T08:21:37.403Z,99.90
2018-09-15T08:24:07.148Z,99.90
2018-09-15T08:26:36.458Z,99.90
2018-09-15T08:29:05.761Z,99.90
2018-09-15T08:31:35.052Z,99.90
2018-09-15T08:34:04.330Z,99.90
2018-09-15T08:36:33.665Z,99.90
2018-09-15T08:39:03.086Z,99.90
2018-09-15T08:41:32.619Z,99.90
2018-09-15T08:44:02.233Z,99.90
2018-09-15T08:46:31.501Z,99.90
2018-09-15T08:49:00.826Z,99.90
2018-09-15T08:51:30.180Z,99.90
2018-09-15T08:53:59.563Z,99.90
2018-09-15T08:56:28.771Z,99.90
2018-09-15T08:58:58.127Z,99.90
2018-09-15T09:01:27.456Z,99.90
2018-09-15T09:03:56.826Z,99.90
2018-09-15T09:06:26.108Z,99.90
2018-09-15T09:08:55.407Z,99.90
2018-09-15T09:11:24.672Z,99.90
2018-09-15T09:13:54.082Z,99.90
2018-09-15T09:16:23.378Z,99.90
2018-09-15T09:18:52.642Z,99.90
2018-09-15T09:21:21.954Z,99.90
2018-09-15T09:23:51.279Z,99.90
2018-09-15T09:26:20.652Z,99.90
2018-09-15T09:28:50.982Z,99.90
2018-09-15T09:31:20.210Z,99.90
2018-09-15T09:33:49.517Z,99.90
2018-09-15T09:36:18.888Z,99.90
2018-09-15T09:38:48.256Z,99.90
2018-09-15T09:41:17.650Z,99.90
2018-09-15T09:43:46.954Z,99.90
2018-09-15T09:46:16.190Z,99.90
2018-09-15T09:48:45.554Z,99.90
2018-09-15T09:51:14.829Z,99.90
2018-09-15T09:53:44.183Z,99.90
2018-09-15T09:56:13.458Z,99.90
2018-09-15T09:58:42.754Z,99.90
2018-09-15T10:01:17.229Z,99.90
2018-09-15T10:03:46.527Z,99.90
2018-09-15T10:06:15.839Z,99.90
2018-09-15T10:08:45.212Z,99.90
2018-09-15T10:11:14.470Z,99.90
2018-09-15T10:13:43.815Z,99.90
2018-09-15T10:16:13.158Z,99.90
2018-09-15T10:18:42.463Z,99.90
2018-09-15T10:21:11.920Z,99.90
2018-09-15T10:23:41.277Z,99.90
2018-09-15T10:26:10.639Z,99.90
2018-09-15T10:28:39.894Z,98.90
2018-09-15T10:31:09.143Z,99.90
2018-09-15T10:33:38.554Z,99.90
2018-09-15T10:36:07.941Z,96.20
2018-09-15T10:38:37.289Z,97.20
2018-09-15T10:41:06.826Z,96.20
2018-09-15T10:43:36.131Z,95.10
2018-09-15T10:46:05.637Z,95.90
2018-09-15T10:48:35.018Z,95.60
2018-09-15T10:51:04.415Z,93.30
2018-09-15T10:53:33.742Z,95.40
2018-09-15T10:56:03.044Z,95.70
2018-09-15T10:58:32.300Z,93.50
2018-09-15T11:01:01.755Z,94.10
2018-09-15T11:03:31.013Z,94.10
2018-09-15T11:06:00.473Z,93.00
2018-09-15T11:08:29.757Z,94.50
2018-09-15T11:10:59.030Z,91.70
2018-09-15T11:13:28.368Z,90.00
2018-09-15T11:15:57.613Z,89.20
2018-09-15T11:18:26.831Z,90.80
2018-09-15T11:20:56.214Z,90.30
2018-09-15T11:23:25.524Z,92.40
2018-09-15T11:25:54.882Z,90.30
2018-09-15T11:28:24.260Z,89.70
2018-09-15T11:30:53.633Z,85.60
2018-09-15T11:33:23.014Z,93.40
2018-09-15T11:35:52.436Z,88.40
2018-09-15T11:38:21.815Z,89.00
2018-09-15T11:40:51.095Z,85.10
2018-09-15T11:43:20.344Z,90.10
2018-09-15T11:45:49.747Z,90.60
2018-09-15T11:48:21.807Z,82.40
2018-09-15T11:50:51.152Z,83.30
2018-09-15T11:53:20.534Z,82.40
2018-09-15T11:55:49.851Z,82.10
2018-09-15T11:58:19.150Z,81.00
2018-09-15T12:00:55.450Z,81.20
2018-09-15T12:03:24.711Z,82.60
2018-09-15T12:05:53.993Z,81.50
2018-09-15T12:08:23.300Z,86.30
2018-09-15T12:10:52.607Z,82.00
2018-09-15T12:13:21.911Z,82.20
2018-09-15T12:15:51.211Z,80.00
2018-09-15T12:18:20.520Z,82.50
2018-09-15T12:20:49.854Z,79.10
2018-09-15T12:23:19.196Z,78.70
2018-09-15T12:25:48.435Z,80.80
2018-09-15T12:28:17.738Z,78.10
2018-09-15T12:30:47.008Z,76.10
2018-09-15T12:33:16.304Z,76.50
2018-09-15T12:35:45.462Z,73.00
2018-09-15T12:38:14.720Z,72.80
2018-09-15T12:40:43.894Z,73.70
2018-09-15T12:43:13.206Z,77.40
2018-09-15T12:45:42.424Z,73.00
2018-09-15T12:48:11.654Z,72.50
2018-09-15T12:50:40.819Z,69.50
2018-09-15T12:53:10.175Z,67.20
2018-09-15T12:55:39.547Z,68.40
2018-09-15T12:58:08.879Z,70.30
2018-09-15T13:00:38.362Z,72.00
2018-09-15T13:03:07.658Z,69.10
2018-09-15T13:05:36.955Z,70.20
2018-09-15T13:08:06.507Z,67.80
2018-09-15T13:10:35.797Z,69.10
2018-09-15T13:13:05.147Z,68.80
2018-09-15T13:15:34.559Z,69.50
2018-09-15T13:18:03.884Z,68.10
2018-09-15T13:20:33.165Z,66.80
2018-09-15T13:23:02.510Z,66.70
2018-09-15T13:25:31.854Z,67.30
2018-09-15T13:28:01.191Z,66.60
2018-09-15T13:30:30.543Z,66.90
2018-09-15T13:32:59.895Z,68.80
2018-09-15T13:35:29.256Z,68.10
2018-09-15T13:37:58.655Z,67.10
2018-09-15T13:40:27.987Z,66.80
2018-09-15T13:42:57.306Z,67.70
2018-09-15T13:45:26.567Z,66.80
2018-09-15T13:47:55.809Z,67.30
2018-09-15T13:50:25.103Z,67.30
2018-09-15T13:52:54.445Z,67.30
2018-09-15T13:55:23.735Z,67.20
2018-09-15T13:57:53.063Z,67.20
2018-09-15T14:00:22.491Z,70.00
2018-09-15T14:02:51.834Z,68.00
2018-09-15T14:05:21.134Z,68.00
2018-09-15T14:07:50.426Z,67.90
2018-09-15T14:10:19.746Z,68.50
2018-09-15T14:12:49.052Z,68.80
2018-09-15T14:15:18.352Z,70.50
2018-09-15T14:17:49.311Z,70.70
2018-09-15T14:20:18.618Z,69.70
2018-09-15T14:22:47.935Z,70.20
2018-09-15T14:25:17.309Z,69.10
2018-09-15T14:27:46.592Z,69.90
2018-09-15T14:30:15.902Z,69.80
2018-09-15T14:32:45.138Z,69.40
2018-09-15T14:35:14.499Z,69.60
2018-09-15T14:37:43.788Z,69.40
2018-09-15T14:40:13.083Z,69.80
2018-09-15T14:42:42.395Z,69.80
2018-09-15T14:45:11.697Z,70.10
2018-09-15T14:47:40.990Z,70.60
2018-09-15T14:50:10.264Z,70.50
2018-09-15T14:52:39.525Z,71.70
2018-09-15T14:55:08.965Z,72.10
2018-09-15T14:57:38.222Z,70.70
2018-09-15T15:00:08.860Z,70.60
2018-09-15T15:02:38.295Z,69.90
2018-09-15T15:05:07.638Z,71.10
2018-09-15T15:07:36.934Z,71.00
2018-09-15T15:10:06.262Z,74.10
2018-09-15T15:12:35.543Z,72.30
2018-09-15T15:15:04.911Z,70.10
2018-09-15T15:17:34.223Z,70.20
2018-09-15T15:20:03.547Z,69.80
2018-09-15T15:22:32.858Z,73.20
2018-09-15T15:25:03.597Z,71.50
2018-09-15T15:27:32.903Z,71.20
2018-09-15T15:30:02.219Z,70.00
2018-09-15T15:32:31.523Z,70.30
2018-09-15T15:35:00.823Z,68.50
2018-09-15T15:37:30.213Z,69.30
2018-09-15T15:39:59.486Z,70.20
2018-09-15T15:42:28.805Z,68.30
2018-09-15T15:44:58.153Z,70.30
2018-09-15T15:47:27.481Z,70.20
2018-09-15T15:49:56.789Z,68.80
2018-09-15T15:52:29.894Z,70.10
2018-09-15T15:54:59.178Z,69.50
2018-09-15T15:57:28.450Z,69.50
2018-09-15T15:59:57.830Z,68.90
2018-09-15T16:02:27.186Z,69.10
2018-09-15T16:04:56.539Z,69.40
2018-09-15T16:07:25.919Z,70.00
2018-09-15T16:09:55.195Z,69.90
2018-09-15T16:12:24.410Z,69.60
2018-09-15T16:14:53.683Z,70.20
2018-09-15T16:17:22.985Z,70.70
2018-09-15T16:19:52.449Z,71.10
2018-09-15T16:22:21.979Z,70.80
2018-09-15T16:24:51.965Z,70.20
2018-09-15T16:27:21.438Z,69.90
2018-09-15T16:29:50.850Z,69.10
2018-09-15T16:32:20.202Z,70.00
2018-09-15T16:34:49.543Z,69.20
2018-09-15T16:37:18.907Z,69.90
2018-09-15T16:39:48.201Z,69.50
2018-09-15T16:42:17.607Z,70.40
2018-09-15T16:44:46.875Z,71.00
2018-09-15T16:47:16.179Z,71.00
2018-09-15T16:49:45.449Z,71.80
2018-09-15T16:52:14.761Z,72.40
2018-09-15T16:54:44.017Z,72.90
2018-09-15T16:57:13.378Z,73.00
2018-09-15T16:59:48.114Z,72.40
2018-09-15T17:02:18.516Z,72.30
2018-09-15T17:04:47.853Z,73.40
2018-09-15T17:07:17.390Z,72.20
2018-09-15T17:09:46.656Z,74.40
2018-09-15T17:12:15.886Z,73.90
2018-09-15T17:14:45.202Z,75.40
2018-09-15T17:17:14.488Z,76.40
2018-09-15T17:19:43.676Z,74.80
2018-09-15T17:22:15.980Z,77.80
2018-09-15T17:24:46.391Z,78.80
2018-09-15T17:27:15.747Z,80.10
2018-09-15T17:29:45.032Z,80.10
2018-09-15T17:32:14.496Z,80.80
2018-09-15T17:34:43.753Z,80.30
2018-09-15T17:37:13.114Z,81.50
2018-09-15T17:39:42.401Z,81.90
2018-09-15T17:42:15.275Z,82.40
2018-09-15T17:44:44.578Z,82.50
2018-09-15T17:47:13.966Z,82.90
2018-09-15T17:49:43.589Z,82.60
2018-09-15T17:52:12.983Z,82.10
2018-09-15T17:54:42.326Z,82.90
2018-09-15T17:57:11.614Z,83.50
2018-09-15T17:59:40.931Z,84.40
2018-09-15T18:02:11.550Z,83.90
2018-09-15T18:04:42.161Z,86.40
2018-09-15T18:07:11.611Z,86.40
2018-09-15T18:09:41.063Z,87.40
2018-09-15T18:12:10.501Z,86.90
2018-09-15T18:14:40.258Z,84.60
2018-09-15T18:17:15.396Z,88.10
2018-09-15T18:19:44.798Z,89.20
2018-09-15T18:22:14.151Z,87.50
2018-09-15T18:24:43.446Z,88.60
2018-09-15T18:27:12.859Z,89.60
2018-09-15T18:29:42.210Z,88.70
2018-09-15T18:32:11.533Z,90.10
2018-09-15T18:34:41.113Z,90.20
2018-09-15T18:37:10.361Z,90.40
2018-09-15T18:39:39.964Z,89.60
2018-09-15T18:42:09.382Z,88.70
2018-09-15T18:44:38.764Z,90.70
2018-09-15T18:47:08.225Z,90.50
2018-09-15T18:49:37.532Z,91.40
2018-09-15T18:52:06.958Z,90.50
2018-09-15T18:54:36.480Z,92.40
2018-09-15T18:57:05.986Z,90.90
2018-09-15T18:59:35.339Z,91.80
2018-09-15T19:02:04.677Z,93.00
2018-09-15T19:04:34.079Z,93.70
2018-09-15T19:07:04.454Z,94.10
2018-09-15T19:09:33.820Z,94.40
2018-09-15T19:12:04.282Z,94.90
2018-09-15T19:14:33.585Z,95.60
2018-09-15T19:17:02.896Z,95.30
2018-09-15T19:19:32.274Z,96.10
2018-09-15T19:22:01.655Z,96.50
2018-09-15T19:24:31.074Z,94.00
2018-09-15T19:27:00.482Z,97.20
2018-09-15T19:29:29.794Z,96.70
2018-09-15T19:32:01.189Z,98.30
2018-09-15T19:34:30.536Z,97.90
2018-09-15T19:36:59.834Z,99.00
2018-09-15T19:39:29.115Z,99.30
2018-09-15T19:42:09.482Z,99.90
2018-09-15T19:44:38.866Z,98.00
2018-09-15T19:47:08.244Z,99.90
2018-09-15T19:49:37.595Z,96.50
2018-09-15T19:52:06.894Z,99.90
2018-09-15T19:54:36.203Z,99.90
2018-09-15T19:57:05.702Z,99.90
2018-09-15T19:59:35.009Z,97.50
2018-09-15T20:02:04.327Z,99.90
2018-09-15T20:04:33.645Z,99.90
2018-09-15T20:07:03.069Z,99.90
2018-09-15T20:09:32.427Z,99.90
2018-09-15T20:12:01.694Z,99.90
2018-09-15T20:14:35.446Z,99.90
2018-09-15T20:17:03.174Z,99.90
2018-09-15T20:19:30.981Z,99.90
2018-09-15T20:21:58.742Z,99.90
2018-09-15T20:24:28.030Z,99.90
2018-09-15T20:26:57.383Z,99.90
2018-09-15T20:29:26.764Z,99.90
2018-09-15T20:31:56.082Z,99.90
2018-09-15T20:34:25.330Z,99.90
2018-09-15T20:36:54.887Z,99.90
2018-09-15T20:39:24.142Z,99.90
2018-09-15T20:41:53.459Z,99.90
2018-09-15T20:44:22.785Z,99.90
2018-09-15T20:46:52.083Z,99.90
2018-09-15T20:49:21.346Z,99.90
2018-09-15T20:51:50.679Z,99.90
2018-09-15T20:54:19.898Z,99.90
2018-09-15T20:56:49.250Z,99.90
2018-09-15T20:59:18.543Z,99.90
2018-09-15T21:01:47.875Z,99.90
2018-09-15T21:04:17.223Z,99.90
2018-09-15T21:06:46.467Z,99.90
2018-09-15T21:09:25.659Z,99.90
2018-09-15T21:11:54.974Z,99.90
2018-09-15T21:14:24.344Z,99.90
2018-09-15T21:16:53.808Z,99.90
2018-09-15T21:19:23.092Z,99.90
2018-09-15T21:21:52.700Z,99.90
2018-09-15T21:24:22.102Z,99.90
2018-09-15T21:26:51.482Z,99.90
2018-09-15T21:29:20.835Z,99.90
2018-09-15T21:31:50.083Z,99.90
2018-09-15T21:34:19.460Z,99.90
2018-09-15T21:36:48.694Z,99.90
2018-09-15T21:39:18.055Z,99.90
2018-09-15T21:41:47.421Z,99.90
2018-09-15T21:44:16.691Z,99.90
2018-09-15T21:46:46.047Z,99.90
2018-09-15T21:49:15.311Z,99.90
2018-09-15T21:51:44.618Z,99.90
2018-09-15T21:54:13.872Z,99.90
2018-09-15T21:56:43.202Z,99.90
2018-09-15T21:59:12.562Z,99.90
2018-09-15T22:01:41.911Z,99.90
2018-09-15T22:04:16.306Z,99.90
2018-09-15T22:06:45.584Z,99.90
2018-09-15T22:09:19.335Z,99.90
2018-09-15T22:11:48.622Z,99.90
2018-09-15T22:14:18.151Z,99.90
2018-09-15T22:16:47.447Z,99.90
2018-09-15T22:19:16.695Z,99.90
2018-09-15T22:21:46.012Z,99.90
2018-09-15T22:24:15.402Z,99.90
2018-09-15T22:29:13.642Z,99.90
2018-09-15T22:31:42.883Z,99.90
2018-09-15T22:34:12.299Z,99.90
2018-09-15T22:36:41.554Z,99.90
2018-09-15T22:39:10.831Z,99.90
2018-09-15T22:41:40.304Z,99.90
2018-09-15T22:44:09.624Z,99.90
2018-09-15T22:46:38.893Z,99.90
2018-09-15T22:49:08.146Z,99.90
2018-09-15T22:51:37.415Z,99.90
2018-09-15T22:54:06.738Z,99.90
2018-09-15T22:56:36.022Z,99.90
2018-09-15T22:59:05.346Z,99.90
2018-09-15T23:01:34.609Z,99.90
2018-09-15T23:04:05.246Z,99.90
2018-09-15T23:06:34.871Z,99.90
2018-09-15T23:09:05.452Z,99.90
2018-09-15T23:11:34.801Z,99.90
2018-09-15T23:14:04.110Z,99.90
2018-09-15T23:16:33.331Z,99.90
2018-09-15T23:19:02.720Z,99.90
2018-09-15T23:21:32.264Z,99.90
2018-09-15T23:24:01.538Z,99.90
2018-09-15T23:26:30.790Z,99.90
2018-09-15T23:29:00.090Z,99.90
2018-09-15T23:31:29.387Z,99.90
2018-09-15T23:33:58.699Z,99.90
2018-09-15T23:36:27.994Z,99.90
2018-09-15T23:38:57.289Z,99.90
2018-09-15T23:41:26.500Z,99.90
2018-09-15T23:43:55.877Z,99.90
2018-09-15T23:46:25.138Z,99.90
2018-09-15T23:48:54.450Z,99.90
2018-09-15T23:51:23.716Z,99.90
2018-09-15T23:53:53.016Z,99.90
2018-09-15T23:56:22.538Z,99.90
2018-09-15T23:58:51.826Z,99.90
